Time;durP1;ratioP1;P1;durP2;ratioP2;P2;SDS_P1;SDS_P2;PMS_P1;PMS_P2;Temp;Humidity;BMP_temperature;BMP_pressure;BME280_temperature;BME280_humidity;BME280_pressure;Samples;Min_cycle;Max_cycle;Signal;HPM_P1;HPM_P2
2023/11/09 00:01:10;;;;;;;7.03;3.47;;;1.70;99.90;;;;;;5060515;28;20036;-81
2023/11/09 00:03:36;;;;;;;6.03;3.03;;;1.70;99.90;;;;;;5061001;28;20403;-80
2023/11/09 00:06:02;;;;;;;9.17;4.67;;;1.70;99.90;;;;;;5060388;28;20033;-81
2023/11/09 00:08:30;;;;;;;6.83;3.90;;;1.70;99.90;;;;;;5061230;28;20028;-81
2023/11/09 00:10:59;;;;;;;12.50;5.37;;;1.60;99.90;;;;;;5060531;28;20055;-80
2023/11/09 00:13:25;;;;;;;5.87;3.37;;;1.60;99.90;;;;;;5059939;28;20037;-80
2023/11/09 00:15:51;;;;;;;8.10;3.00;;;1.60;99.90;;;;;;5059950;28;20024;-80
2023/11/09 00:18:21;;;;;;;5.87;3.20;;;1.60;99.90;;;;;;5061080;28;20726;-81
2023/11/09 00:20:51;;;;;;;5.43;2.80;;;1.50;99.90;;;;;;5061412;28;20021;-80
2023/11/09 00:23:17;;;;;;;5.30;3.30;;;1.50;99.90;;;;;;5060810;28;20028;-81
2023/11/09 00:25:43;;;;;;;5.47;2.80;;;1.50;99.90;;;;;;5058986;28;20060;-81
2023/11/09 00:28:09;;;;;;;6.03;3.30;;;1.50;99.90;;;;;;5060414;28;20059;-81
2023/11/09 00:30:34;;;;;;;5.37;3.07;;;1.50;99.90;;;;;;5060983;28;20029;-81
2023/11/09 00:33:00;;;;;;;7.27;3.23;;;1.40;99.90;;;;;;5060393;28;20416;-80
2023/11/09 00:35:25;;;;;;;6.00;3.30;;;1.40;99.90;;;;;;5060279;28;20021;-80
2023/11/09 00:37:51;;;;;;;5.90;2.97;;;1.40;99.90;;;;;;5061471;28;20029;-80
2023/11/09 00:40:16;;;;;;;5.37;3.30;;;1.40;99.90;;;;;;5060961;28;20094;-81
2023/11/09 00:42:43;;;;;;;5.53;3.03;;;1.40;99.90;;;;;;5061152;28;20734;-81
2023/11/09 00:45:09;;;;;;;5.73;3.20;;;1.30;99.90;;;;;;5061559;28;20039;-81
2023/11/09 00:47:35;;;;;;;5.17;2.80;;;1.30;99.90;;;;;;5060549;28;20024;-80
2023/11/09 00:50:01;;;;;;;7.80;4.67;;;1.30;99.90;;;;;;5060880;28;20103;-80
2023/11/09 00:52:27;;;;;;;4.77;3.10;;;1.30;99.90;;;;;;5064755;28;20557;-80
2023/11/09 00:54:53;;;;;;;6.03;3.37;;;1.30;99.90;;;;;;5062064;28;20067;-81
2023/11/09 00:57:24;;;;;;;8.23;3.53;;;1.20;99.90;;;;;;5062756;28;20017;-80
2023/11/09 00:59:49;;;;;;;6.00;3.00;;;1.30;99.90;;;;;;5063461;28;20403;-80
2023/11/09 01:02:16;;;;;;;5.03;3.00;;;1.20;99.90;;;;;;5063392;28;20045;-80
2023/11/09 01:04:42;;;;;;;4.57;2.90;;;1.20;99.90;;;;;;5061076;28;20070;-80
2023/11/09 01:07:09;;;;;;;7.27;3.07;;;1.20;99.90;;;;;;5061121;28;21445;-80
2023/11/09 01:09:37;;;;;;;5.60;2.70;;;1.20;99.90;;;;;;5061948;28;20024;-80
2023/11/09 01:12:03;;;;;;;6.40;3.23;;;1.20;99.90;;;;;;5062691;28;20083;-80
2023/11/09 01:14:28;;;;;;;4.90;3.10;;;1.20;99.90;;;;;;5062860;28;20032;-81
2023/11/09 01:16:54;;;;;;;4.70;2.90;;;1.20;99.90;;;;;;5063346;28;20029;-80
2023/11/09 01:19:19;;;;;;;5.80;3.00;;;1.20;99.90;;;;;;5062266;28;20037;-80
2023/11/09 01:21:45;;;;;;;4.13;2.53;;;1.20;99.90;;;;;;5065686;28;20104;-80
2023/11/09 01:24:11;;;;;;;4.50;2.30;;;1.20;99.90;;;;;;5074615;28;20013;-80
2023/11/09 01:26:37;;;;;;;3.70;2.03;;;1.30;99.90;;;;;;5074515;28;20032;-80
2023/11/09 01:29:02;;;;;;;4.20;2.80;;;1.20;99.90;;;;;;5065211;28;20131;-80
2023/11/09 01:31:28;;;;;;;2.77;2.10;;;1.30;99.90;;;;;;5059367;28;20739;-81
2023/11/09 01:33:53;;;;;;;4.27;2.40;;;1.30;99.90;;;;;;5058832;28;20531;-81
2023/11/09 01:36:19;;;;;;;4.67;2.20;;;1.30;99.90;;;;;;5058796;28;20020;-81
2023/11/09 01:38:45;;;;;;;3.50;2.20;;;1.30;99.90;;;;;;5059135;28;20028;-81
2023/11/09 01:41:10;;;;;;;3.97;2.23;;;1.20;99.90;;;;;;5058819;28;20037;-80
2023/11/09 01:43:36;;;;;;;4.40;2.00;;;1.20;99.90;;;;;;5057571;28;20028;-80
2023/11/09 01:46:04;;;;;;;3.40;2.20;;;1.20;99.90;;;;;;5057371;28;20029;-80
2023/11/09 01:48:31;;;;;;;5.00;2.40;;;1.20;99.90;;;;;;5057556;28;20571;-81
2023/11/09 01:50:57;;;;;;;4.03;2.50;;;1.20;99.90;;;;;;5056843;28;20033;-80
2023/11/09 01:53:23;;;;;;;5.83;2.20;;;1.20;99.90;;;;;;5057627;28;20035;-80
2023/11/09 01:55:49;;;;;;;5.07;2.50;;;1.10;99.90;;;;;;5056168;28;20017;-81
2023/11/09 01:58:15;;;;;;;4.93;2.40;;;1.10;99.90;;;;;;5057505;28;20526;-81
2023/11/09 02:00:43;;;;;;;6.70;2.50;;;1.10;99.90;;;;;;5056069;28;20036;-81
2023/11/09 02:03:09;;;;;;;4.63;2.40;;;1.00;99.90;;;;;;5055961;28;20391;-80
2023/11/09 02:05:37;;;;;;;5.53;2.30;;;1.00;99.90;;;;;;5057085;28;20028;-80
2023/11/09 02:08:03;;;;;;;3.20;2.13;;;1.00;99.90;;;;;;5061729;28;20104;-80
2023/11/09 02:10:32;;;;;;;5.37;2.07;;;1.00;99.90;;;;;;5061636;28;20123;-81
2023/11/09 02:12:59;;;;;;;4.60;2.30;;;1.00;99.90;;;;;;5060191;28;20039;-80
2023/11/09 02:15:25;;;;;;;3.47;2.00;;;1.00;99.90;;;;;;5060872;28;20020;-80
2023/11/09 02:17:53;;;;;;;8.87;2.20;;;1.00;99.90;;;;;;5060786;28;20028;-80
2023/11/09 02:20:20;;;;;;;4.57;2.00;;;0.90;99.90;;;;;;5063172;28;20063;-80
2023/11/09 02:22:48;;;;;;;5.43;2.33;;;0.90;99.90;;;;;;5063433;28;20403;-80
2023/11/09 02:25:14;;;;;;;4.13;2.30;;;0.90;99.90;;;;;;5063006;28;20073;-80
2023/11/09 02:27:39;;;;;;;3.30;2.33;;;0.80;99.90;;;;;;5061766;28;20024;-80
2023/11/09 02:30:06;;;;;;;3.80;2.33;;;0.80;99.90;;;;;;5063951;28;20395;-80
2023/11/09 02:32:32;;;;;;;4.80;2.73;;;0.80;99.90;;;;;;5063258;28;20032;-80
2023/11/09 02:34:57;;;;;;;4.57;2.57;;;0.70;99.90;;;;;;5063474;28;20017;-80
2023/11/09 02:37:24;;;;;;;3.57;2.53;;;0.70;99.90;;;;;;5062392;28;20025;-80
2023/11/09 02:39:54;;;;;;;4.67;2.90;;;0.70;99.90;;;;;;5062565;28;20056;-80
2023/11/09 02:42:20;;;;;;;5.83;3.30;;;0.60;99.90;;;;;;5062713;28;20036;-80
2023/11/09 02:44:46;;;;;;;4.97;3.30;;;0.60;99.90;;;;;;5062545;28;20123;-80
2023/11/09 02:47:12;;;;;;;4.33;2.83;;;0.60;99.90;;;;;;5062825;28;20690;-80
2023/11/09 02:49:38;;;;;;;4.60;2.80;;;0.60;99.90;;;;;;5062223;28;20116;-80
2023/11/09 02:52:05;;;;;;;8.67;3.80;;;0.60;99.90;;;;;;5063102;28;20027;-80
2023/11/09 02:54:31;;;;;;;5.00;3.07;;;0.60;99.90;;;;;;5061568;28;20126;-80
2023/11/09 02:56:57;;;;;;;6.70;3.50;;;0.60;99.90;;;;;;5061212;28;20447;-80
2023/11/09 02:59:22;;;;;;;7.93;3.73;;;0.60;99.90;;;;;;5063370;28;20139;-80
2023/11/09 03:01:48;;;;;;;8.93;3.93;;;0.60;99.90;;;;;;5062770;28;20457;-80
2023/11/09 03:04:15;;;;;;;6.40;3.50;;;0.60;99.90;;;;;;5061766;28;20103;-80
2023/11/09 03:06:40;;;;;;;7.00;3.90;;;0.60;99.90;;;;;;5061279;28;20067;-80
2023/11/09 03:09:07;;;;;;;5.87;3.73;;;0.60;99.90;;;;;;5061918;28;20431;-80
2023/11/09 03:11:33;;;;;;;8.80;3.20;;;0.60;99.90;;;;;;5060691;28;20063;-80
2023/11/09 03:14:00;;;;;;;5.83;3.97;;;0.60;99.90;;;;;;5061835;28;20796;-79
2023/11/09 03:16:26;;;;;;;4.60;2.90;;;0.60;99.90;;;;;;5061919;28;20025;-80
2023/11/09 03:18:52;;;;;;;7.03;3.03;;;0.60;99.90;;;;;;5060634;28;20135;-80
2023/11/09 03:21:18;;;;;;;5.10;2.77;;;0.60;99.90;;;;;;5062725;28;20126;-80
2023/11/09 03:23:44;;;;;;;4.83;3.17;;;0.60;99.90;;;;;;5060916;28;20115;-80
2023/11/09 03:26:10;;;;;;;7.40;3.30;;;0.60;99.90;;;;;;5058883;28;20082;-80
2023/11/09 03:28:38;;;;;;;6.77;2.80;;;0.60;99.90;;;;;;5060613;28;20029;-80
2023/11/09 03:31:04;;;;;;;5.23;3.13;;;0.60;99.90;;;;;;5059075;28;20081;-80
2023/11/09 03:33:30;;;;;;;6.43;3.00;;;0.60;99.90;;;;;;5060159;28;20043;-80
2023/11/09 03:35:56;;;;;;;4.87;2.83;;;0.50;99.90;;;;;;5059630;28;20099;-80
2023/11/09 03:38:21;;;;;;;4.27;2.63;;;0.50;99.90;;;;;;5059634;28;20107;-80
2023/11/09 03:40:47;;;;;;;5.27;2.57;;;0.60;99.90;;;;;;5060702;28;20021;-80
2023/11/09 03:43:12;;;;;;;4.10;3.00;;;0.60;99.90;;;;;;5060099;28;20207;-80
2023/11/09 03:45:38;;;;;;;5.77;3.00;;;0.60;99.90;;;;;;5061498;28;20070;-80
2023/11/09 03:48:04;;;;;;;5.50;2.87;;;0.60;99.90;;;;;;5063524;28;20025;-80
2023/11/09 03:50:31;;;;;;;5.27;2.50;;;0.60;99.90;;;;;;5063024;28;20028;-80
2023/11/09 03:52:56;;;;;;;4.90;2.20;;;0.60;99.90;;;;;;5062427;28;20033;-80
2023/11/09 03:55:22;;;;;;;7.37;2.90;;;0.60;99.90;;;;;;5062918;28;20501;-79
2023/11/09 03:57:47;;;;;;;3.63;2.60;;;0.60;99.90;;;;;;5062834;28;20028;-80
2023/11/09 04:00:13;;;;;;;4.00;2.67;;;0.60;99.90;;;;;;5062386;28;20092;-80
2023/11/09 04:02:41;;;;;;;4.50;2.87;;;0.60;99.90;;;;;;5062554;28;20041;-80
2023/11/09 04:05:09;;;;;;;4.60;2.87;;;0.60;99.90;;;;;;5061654;28;20039;-80
2023/11/09 04:07:38;;;;;;;6.63;3.07;;;0.60;99.90;;;;;;5062953;28;20048;-80
2023/11/09 04:10:06;;;;;;;7.00;2.80;;;0.60;99.90;;;;;;5061386;28;20051;-79
2023/11/09 04:12:31;;;;;;;4.80;2.60;;;0.60;99.90;;;;;;5063374;28;20044;-79
2023/11/09 04:14:58;;;;;;;4.73;2.97;;;0.50;99.90;;;;;;5063469;28;20027;-80
2023/11/09 04:17:24;;;;;;;6.60;2.57;;;0.60;99.90;;;;;;5068499;28;20088;-80
2023/11/09 04:19:50;;;;;;;3.40;2.40;;;0.50;99.90;;;;;;5075668;28;20029;-80
2023/11/09 04:22:16;;;;;;;3.70;2.17;;;0.50;99.90;;;;;;5073904;28;20044;-80
2023/11/09 04:24:41;;;;;;;4.27;2.53;;;0.40;99.90;;;;;;5063038;28;20601;-80
2023/11/09 04:27:08;;;;;;;4.43;2.80;;;0.40;99.90;;;;;;5059593;28;20025;-80
2023/11/09 04:29:34;;;;;;;5.93;3.70;;;0.40;99.90;;;;;;5060885;28;20032;-80
2023/11/09 04:32:01;;;;;;;9.10;4.87;;;0.40;99.90;;;;;;5059894;28;20490;-80
2023/11/09 04:34:26;;;;;;;9.17;4.77;;;0.40;99.90;;;;;;5059119;28;20031;-80
2023/11/09 04:36:52;;;;;;;9.27;4.93;;;0.40;99.90;;;;;;5058707;28;20029;-80
2023/11/09 04:39:28;;;;;;;6.43;4.23;;;0.40;99.90;;;;;;5058960;28;20028;-80
2023/11/09 04:42:04;;;;;;;6.93;3.73;;;0.40;99.90;;;;;;5057827;28;20025;-80
2023/11/09 04:44:30;;;;;;;7.53;4.10;;;0.40;99.90;;;;;;5057831;28;20031;-79
2023/11/09 04:46:57;;;;;;;5.97;3.90;;;0.40;99.90;;;;;;5059611;28;20103;-80
2023/11/09 04:49:26;;;;;;;6.00;3.33;;;0.40;99.90;;;;;;5058968;28;20078;-80
2023/11/09 04:51:53;;;;;;;7.30;3.20;;;0.50;99.90;;;;;;5058814;28;20033;-80
2023/11/09 04:54:24;;;;;;;6.10;3.40;;;0.50;99.90;;;;;;5058418;28;20035;-80
2023/11/09 05:07:25;;;;;;;15.77;9.50;;;0.50;99.90;;;;;;5058446;28;20111;-80
2023/11/09 05:09:51;;;;;;;7.57;4.00;;;0.60;99.90;;;;;;5059725;28;20271;-80
2023/11/09 05:12:18;;;;;;;7.23;3.60;;;0.60;99.90;;;;;;5059229;28;20035;-86
2023/11/09 05:14:43;;;;;;;6.20;3.40;;;0.60;99.90;;;;;;5056082;28;20831;-86
2023/11/09 05:17:10;;;;;;;7.07;3.50;;;0.60;99.90;;;;;;5055625;28;20025;-86
2023/11/09 05:19:36;;;;;;;5.47;3.27;;;0.70;99.90;;;;;;5054890;28;20056;-85
2023/11/09 05:22:04;;;;;;;5.50;3.10;;;0.70;99.90;;;;;;5054582;28;20020;-86
2023/11/09 05:24:30;;;;;;;5.47;3.10;;;0.80;99.90;;;;;;5056054;28;20044;-86
2023/11/09 05:26:56;;;;;;;8.60;3.43;;;0.80;99.90;;;;;;5056634;28;20467;-85
2023/11/09 05:29:22;;;;;;;5.47;3.37;;;0.80;99.90;;;;;;5056963;28;20027;-85
2023/11/09 05:31:50;;;;;;;8.20;5.70;;;0.80;99.90;;;;;;5060989;28;20096;-81
2023/11/09 05:34:15;;;;;;;7.33;4.43;;;0.90;99.90;;;;;;5057839;28;20040;-81
2023/11/09 05:36:43;;;;;;;7.90;4.60;;;0.80;99.90;;;;;;5056744;28;20028;-81
2023/11/09 05:39:10;;;;;;;10.43;6.17;;;0.80;99.90;;;;;;5058166;28;20471;-81
2023/11/09 05:41:36;;;;;;;12.13;6.60;;;0.90;99.90;;;;;;5057890;28;20052;-81
2023/11/09 05:44:02;;;;;;;10.23;5.70;;;0.90;99.90;;;;;;5056478;28;20110;-81
2023/11/09 05:46:28;;;;;;;9.43;4.73;;;0.90;99.90;;;;;;5057929;28;20515;-81
2023/11/09 05:48:54;;;;;;;10.63;7.33;;;0.90;99.90;;;;;;5054860;28;20032;-81
2023/11/09 05:51:23;;;;;;;7.43;4.40;;;0.80;99.90;;;;;;5051429;28;20106;-80
2023/11/09 05:53:49;;;;;;;11.33;10.07;;;0.80;99.90;;;;;;5058291;28;20082;-81
2023/11/09 05:56:18;;;;;;;8.60;5.07;;;0.80;99.90;;;;;;5060678;28;20108;-81
2023/11/09 05:58:44;;;;;;;4.23;2.87;;;0.80;99.90;;;;;;5058341;28;20497;-81
2023/11/09 06:01:11;;;;;;;4.07;2.70;;;0.80;99.90;;;;;;5059058;28;20119;-81
2023/11/09 06:03:37;;;;;;;6.30;3.00;;;0.80;99.90;;;;;;5061702;28;20033;-81
2023/11/09 06:06:06;;;;;;;6.97;4.03;;;0.70;99.90;;;;;;5061443;28;20036;-80
2023/11/09 06:08:34;;;;;;;5.57;3.53;;;0.70;99.90;;;;;;5061336;28;20207;-81
2023/11/09 06:11:00;;;;;;;5.37;3.13;;;0.70;99.90;;;;;;5061918;28;20036;-80
2023/11/09 06:13:26;;;;;;;6.40;3.40;;;0.60;99.90;;;;;;5060185;28;20049;-80
2023/11/09 06:15:52;;;;;;;7.77;4.90;;;0.60;99.90;;;;;;5062481;28;20123;-80
2023/11/09 06:18:17;;;;;;;8.90;4.73;;;0.60;99.90;;;;;;5062818;28;20515;-81
2023/11/09 06:20:44;;;;;;;17.83;7.97;;;0.60;99.90;;;;;;5058879;28;20039;-81
2023/11/09 06:23:09;;;;;;;15.43;9.27;;;0.60;99.90;;;;;;5052274;28;20043;-81
2023/11/09 06:25:35;;;;;;;12.90;8.83;;;0.60;99.90;;;;;;5053216;28;20070;-82
2023/11/09 06:28:02;;;;;;;11.87;4.23;;;0.50;99.90;;;;;;5051927;28;20120;-82
2023/11/09 06:30:29;;;;;;;5.73;2.80;;;0.50;99.90;;;;;;5052579;28;20479;-82
2023/11/09 06:32:55;;;;;;;8.23;3.40;;;0.50;99.90;;;;;;5054543;28;20037;-82
2023/11/09 06:35:20;;;;;;;6.57;2.57;;;0.50;99.90;;;;;;5055287;28;20150;-82
2023/11/09 06:37:46;;;;;;;8.53;4.23;;;0.50;99.90;;;;;;5050318;28;20028;-82
2023/11/09 06:40:16;;;;;;;18.40;9.50;;;0.50;99.90;;;;;;5052025;28;20103;-82
2023/11/09 06:42:42;;;;;;;12.53;6.37;;;0.40;99.90;;;;;;5052296;28;20040;-82
2023/11/09 06:45:09;;;;;;;9.23;5.23;;;0.50;99.90;;;;;;5055126;28;20200;-82
2023/11/09 06:47:35;;;;;;;6.40;4.03;;;0.50;99.90;;;;;;5055369;28;20059;-82
2023/11/09 06:50:02;;;;;;;7.50;4.17;;;0.50;99.90;;;;;;5052192;28;20063;-82
2023/11/09 06:52:28;;;;;;;6.50;3.70;;;0.50;99.90;;;;;;5053513;28;20032;-82
2023/11/09 06:54:53;;;;;;;6.93;3.67;;;0.60;99.90;;;;;;5052540;28;20726;-82
2023/11/09 06:57:19;;;;;;;6.47;3.57;;;0.70;99.90;;;;;;5049584;28;20025;-82
2023/11/09 06:59:45;;;;;;;5.27;3.37;;;0.70;99.90;;;;;;5050119;28;20287;-81
2023/11/09 07:02:10;;;;;;;5.43;3.30;;;0.70;99.90;;;;;;5050116;28;20032;-81
2023/11/09 07:04:36;;;;;;;5.83;2.90;;;0.80;99.90;;;;;;5048187;28;20025;-82
2023/11/09 07:07:02;;;;;;;7.57;2.93;;;0.90;99.90;;;;;;5045808;28;20033;-81
2023/11/09 07:09:28;;;;;;;7.87;3.40;;;1.00;99.90;;;;;;5051026;28;20190;-82
2023/11/09 07:11:53;;;;;;;6.17;3.70;;;1.00;99.90;;;;;;5057985;28;20682;-82
2023/11/09 07:14:23;;;;;;;6.57;3.50;;;1.00;99.90;;;;;;5050504;28;20139;-83
2023/11/09 07:16:55;;;;;;;6.40;3.40;;;1.10;99.90;;;;;;5059904;28;20120;-84
2023/11/09 07:19:24;;;;;;;4.83;3.30;;;1.20;99.90;;;;;;5049348;28;20059;-83
2023/11/09 07:21:50;;;;;;;7.07;3.23;;;1.20;99.90;;;;;;5051032;28;20032;-83
2023/11/09 07:24:17;;;;;;;7.10;3.30;;;1.20;99.90;;;;;;5050480;28;20734;-83
2023/11/09 07:26:43;;;;;;;9.87;4.50;;;1.30;99.90;;;;;;5050879;28;20044;-83
2023/11/09 07:29:09;;;;;;;6.90;3.90;;;1.40;99.90;;;;;;5049571;28;20098;-83
2023/11/09 07:31:35;;;;;;;5.63;2.90;;;1.40;99.90;;;;;;5052328;28;20029;-84
2023/11/09 07:34:01;;;;;;;7.57;3.63;;;1.50;99.90;;;;;;5051397;28;20029;-83
2023/11/09 07:36:26;;;;;;;4.60;2.83;;;1.60;99.90;;;;;;5051776;28;20025;-85
2023/11/09 07:38:52;;;;;;;5.07;3.00;;;1.60;99.90;;;;;;5049526;28;20029;-83
2023/11/09 07:41:18;;;;;;;4.77;3.00;;;1.70;99.90;;;;;;5049916;28;20795;-83
2023/11/09 07:43:44;;;;;;;4.60;2.73;;;1.80;99.90;;;;;;5050636;28;20028;-85
2023/11/09 07:46:10;;;;;;;6.73;2.70;;;1.80;99.90;;;;;;5050607;28;20027;-84
2023/11/09 07:48:35;;;;;;;6.93;3.03;;;1.80;99.90;;;;;;5051760;28;20115;-84
2023/11/09 07:51:01;;;;;;;6.00;3.50;;;2.00;99.90;;;;;;5051857;28;20039;-84
2023/11/09 07:53:26;;;;;;;8.50;3.30;;;2.00;99.90;;;;;;5051339;28;20035;-84
2023/11/09 07:55:52;;;;;;;4.67;3.00;;;2.10;99.90;;;;;;5060501;28;20052;-83
2023/11/09 07:58:19;;;;;;;7.07;3.50;;;2.20;99.90;;;;;;5059318;28;20026;-84
2023/11/09 08:00:45;;;;;;;7.37;3.57;;;2.40;99.90;;;;;;5055285;28;20035;-84
2023/11/09 08:03:11;;;;;;;5.83;3.63;;;2.50;99.90;;;;;;5035025;28;20036;-84
2023/11/09 08:05:41;;;;;;;7.03;3.43;;;2.60;99.90;;;;;;5058432;28;20045;-85
2023/11/09 08:08:10;;;;;;;4.07;3.17;;;2.80;99.90;;;;;;5058966;28;21580;-84
2023/11/09 08:10:41;;;;;;;7.10;3.07;;;3.00;99.90;;;;;;5060662;28;20024;-84
2023/11/09 08:13:07;;;;;;;5.60;3.10;;;3.10;99.90;;;;;;5060070;28;20111;-84
2023/11/09 08:15:35;;;;;;;7.07;3.40;;;3.20;99.90;;;;;;5050734;28;20044;-84
2023/11/09 08:18:02;;;;;;;6.73;3.70;;;3.40;99.90;;;;;;5049544;28;20024;-85
2023/11/09 08:20:29;;;;;;;7.87;4.00;;;3.50;99.90;;;;;;5047717;28;20029;-85
2023/11/09 08:22:56;;;;;;;5.70;3.03;;;3.60;99.90;;;;;;5053273;28;20495;-84
2023/11/09 08:25:23;;;;;;;5.33;2.70;;;3.80;99.90;;;;;;5057914;28;20032;-82
2023/11/09 08:27:51;;;;;;;3.90;2.63;;;3.90;99.90;;;;;;5060828;28;20533;-83
2023/11/09 08:30:19;;;;;;;5.53;2.87;;;4.00;99.90;;;;;;5059648;28;20203;-83
2023/11/09 08:32:47;;;;;;;8.63;3.73;;;4.10;99.90;;;;;;5061502;28;20082;-83
2023/11/09 08:35:13;;;;;;;8.30;3.03;;;4.10;99.90;;;;;;5058239;28;20121;-82
2023/11/09 08:37:43;;;;;;;9.97;4.20;;;4.10;99.90;;;;;;5058813;28;20035;-82
2023/11/09 08:40:16;;;;;;;10.97;5.20;;;4.20;99.90;;;;;;5060707;28;20818;-82
2023/11/09 08:42:47;;;;;;;12.57;4.67;;;4.30;99.90;;;;;;5062352;28;20029;-83
2023/11/09 08:45:14;;;;;;;10.67;5.60;;;4.40;99.90;;;;;;5059549;28;20039;-82
2023/11/09 08:47:39;;;;;;;15.13;4.67;;;4.50;99.90;;;;;;5061329;28;20021;-83
2023/11/09 08:50:08;;;;;;;11.13;3.73;;;4.60;99.90;;;;;;5061804;28;20115;-83
2023/11/09 08:52:34;;;;;;;7.90;3.60;;;4.70;99.90;;;;;;5065995;28;20073;-83
2023/11/09 08:55:02;;;;;;;6.73;3.17;;;4.80;99.90;;;;;;5061559;28;20033;-83
2023/11/09 08:57:31;;;;;;;7.93;3.13;;;4.90;99.90;;;;;;5062078;28;20021;-83
2023/11/09 08:59:58;;;;;;;12.27;5.27;;;5.10;99.90;;;;;;5060655;28;20024;-83
2023/11/09 09:02:25;;;;;;;6.10;2.53;;;5.10;99.90;;;;;;5059512;28;20033;-83
2023/11/09 09:04:50;;;;;;;6.30;2.60;;;5.30;99.90;;;;;;5061396;28;20039;-83
2023/11/09 09:07:16;;;;;;;3.00;2.10;;;5.40;99.90;;;;;;5061911;28;20028;-83
2023/11/09 09:09:43;;;;;;;5.47;2.57;;;5.50;99.90;;;;;;5062354;28;20028;-83
2023/11/09 09:12:10;;;;;;;5.17;2.47;;;5.60;99.90;;;;;;5061959;28;20048;-83
2023/11/09 09:14:35;;;;;;;7.17;2.20;;;5.80;99.90;;;;;;5060386;28;20032;-83
2023/11/09 09:17:05;;;;;;;3.37;2.17;;;5.90;99.90;;;;;;5057162;28;20227;-83
2023/11/09 09:19:30;;;;;;;5.93;2.47;;;6.00;99.90;;;;;;5060883;28;20052;-84
2023/11/09 09:21:56;;;;;;;5.13;2.00;;;6.20;99.90;;;;;;5059321;28;20067;-84
2023/11/09 09:24:23;;;;;;;4.20;2.00;;;6.30;99.90;;;;;;5060015;28;20068;-84
2023/11/09 09:26:48;;;;;;;3.83;1.67;;;6.40;99.90;;;;;;5064284;28;20032;-84
2023/11/09 09:29:14;;;;;;;4.90;1.93;;;6.60;99.90;;;;;;5066867;28;20058;-84
2023/11/09 09:31:39;;;;;;;3.70;1.67;;;6.80;99.90;;;;;;5063551;28;20033;-84
2023/11/09 09:34:08;;;;;;;2.43;1.50;;;7.00;99.90;;;;;;5064559;28;20029;-83
2023/11/09 09:36:37;;;;;;;4.33;1.80;;;7.10;99.90;;;;;;5063861;28;20051;-84
2023/11/09 09:39:03;;;;;;;2.47;1.60;;;7.30;99.90;;;;;;5063467;28;20129;-84
2023/11/09 09:41:40;;;;;;;3.10;1.40;;;7.40;99.90;;;;;;5064376;28;20040;-84
2023/11/09 09:44:10;;;;;;;4.57;1.50;;;7.50;99.90;;;;;;5064806;28;20764;-84
2023/11/09 09:46:38;;;;;;;5.83;1.97;;;7.70;99.90;;;;;;5064366;28;20487;-84
2023/11/09 09:49:05;;;;;;;4.07;2.07;;;7.80;99.90;;;;;;5064260;28;20029;-84
2023/11/09 09:51:34;;;;;;;5.80;2.60;;;7.90;99.90;;;;;;5059966;28;20028;-84
2023/11/09 09:54:01;;;;;;;3.73;1.60;;;8.10;99.90;;;;;;5063641;28;20151;-84
2023/11/09 09:56:29;;;;;;;3.87;1.50;;;8.30;99.90;;;;;;5062767;28;20055;-84
2023/11/09 09:58:56;;;;;;;3.63;2.07;;;8.30;99.90;;;;;;5058665;28;20557;-84
2023/11/09 10:01:22;;;;;;;4.70;1.87;;;8.40;99.90;;;;;;5058208;28;20107;-84
2023/11/09 10:03:52;;;;;;;4.10;2.20;;;8.50;99.90;;;;;;5060319;28;20111;-84
2023/11/09 10:06:21;;;;;;;4.97;2.13;;;8.60;99.90;;;;;;5059337;28;20029;-84
2023/11/09 10:08:47;;;;;;;4.23;1.50;;;8.70;99.90;;;;;;5061314;28;20035;-84
2023/11/09 10:11:15;;;;;;;2.37;1.63;;;8.80;99.90;;;;;;5061759;28;20518;-84
2023/11/09 10:13:46;;;;;;;2.80;1.30;;;8.90;99.90;;;;;;5066202;28;20028;-81
2023/11/09 10:16:14;;;;;;;3.27;1.33;;;9.10;99.90;;;;;;5066133;28;20047;-81
2023/11/09 10:18:39;;;;;;;2.97;1.00;;;9.10;99.90;;;;;;5062604;28;20029;-81
2023/11/09 10:21:07;;;;;;;3.97;2.03;;;9.20;99.90;;;;;;5061987;28;20633;-81
2023/11/09 10:23:32;;;;;;;2.37;1.20;;;9.40;99.90;;;;;;5061581;28;20090;-81
2023/11/09 10:25:59;;;;;;;4.73;2.03;;;9.50;99.90;;;;;;5061306;28;20124;-81
2023/11/09 10:28:33;;;;;;;2.30;1.40;;;9.60;99.90;;;;;;5061100;28;20028;-80
2023/11/09 10:31:00;;;;;;;2.73;1.60;;;9.80;99.90;;;;;;5060425;28;20078;-81
2023/11/09 10:33:28;;;;;;;3.13;1.73;;;9.90;99.90;;;;;;5062135;28;20031;-81
2023/11/09 10:35:54;;;;;;;3.40;1.50;;;10.10;99.90;;;;;;5059806;28;20077;-81
2023/11/09 10:38:20;;;;;;;3.00;1.40;;;10.10;99.90;;;;;;5058565;28;20365;-80
2023/11/09 10:40:47;;;;;;;5.23;1.40;;;10.30;99.90;;;;;;5062821;28;20016;-81
2023/11/09 10:43:14;;;;;;;3.47;1.53;;;10.40;99.90;;;;;;5062133;28;20103;-80
2023/11/09 10:45:43;;;;;;;2.27;1.30;;;10.50;99.90;;;;;;5061804;28;20024;-81
2023/11/09 10:48:11;;;;;;;2.97;1.30;;;10.50;99.90;;;;;;5061542;28;20147;-81
2023/11/09 10:50:47;;;;;;;1.97;1.00;;;10.60;99.90;;;;;;5059117;28;20059;-81
2023/11/09 10:53:20;;;;;;;4.63;1.13;;;10.70;99.90;;;;;;5060412;28;20020;-80
2023/11/09 10:55:53;;;;;;;3.23;1.40;;;10.90;99.90;;;;;;5059032;28;20054;-81
2023/11/09 10:58:23;;;;;;;2.80;1.40;;;10.90;99.90;;;;;;5060215;28;20020;-81
2023/11/09 11:00:57;;;;;;;2.90;1.20;;;11.00;99.90;;;;;;5060274;28;20036;-81
2023/11/09 11:03:27;;;;;;;2.35;1.30;;;11.00;99.90;;;;;;5058618;28;20033;-81
2023/11/09 11:06:02;;;;;;;6.70;1.57;;;11.10;99.90;;;;;;5060005;28;20238;-81
2023/11/09 11:08:36;;;;;;;3.10;2.20;;;11.10;99.90;;;;;;5060080;28;20048;-80
2023/11/09 11:11:04;;;;;;;3.10;1.90;;;11.20;99.90;;;;;;5060757;28;20031;-81
2023/11/09 11:13:34;;;;;;;1.77;1.27;;;11.30;99.90;;;;;;5056338;28;20029;-85
2023/11/09 11:16:18;;;;;;;4.55;1.42;;;11.30;99.90;;;;;;5055113;28;20029;-85
2023/11/09 11:19:13;;;;;;;2.70;1.43;;;11.30;99.90;;;;;;5037626;28;20814;-84
2023/11/09 11:22:10;;;;;;;2.60;1.10;;;11.30;99.90;;;;;;5056767;28;20035;-84
2023/11/09 11:25:14;;;;;;;2.03;1.20;;;11.30;99.90;;;;;;5054457;28;20712;-84
2023/11/09 11:28:00;;;;;;;2.40;1.20;;;11.30;99.90;;;;;;5055353;28;20032;-86
2023/11/09 11:30:28;;;;;;;3.60;1.30;;;11.40;99.90;;;;;;5056283;28;20036;-84
2023/11/09 11:32:59;;;;;;;2.63;1.23;;;11.50;99.90;;;;;;5055001;28;20525;-84
2023/11/09 11:35:34;;;;;;;3.13;1.73;;;11.50;99.90;;;;;;5055165;28;20580;-85
2023/11/09 11:38:06;;;;;;;;;;;11.60;99.90;;;;;;5055404;28;20546;-84
2023/11/09 11:40:37;;;;;;;3.57;1.30;;;11.70;99.90;;;;;;5056699;28;19916;-84
2023/11/09 11:43:05;;;;;;;3.67;1.27;;;11.80;99.90;;;;;;5055177;28;20382;-84
2023/11/09 11:45:30;;;;;;;3.15;1.67;;;11.90;99.90;;;;;;5057292;28;20048;-85
2023/11/09 11:48:00;;;;;;;3.97;1.40;;;12.00;99.90;;;;;;5058400;28;20055;-85
2023/11/09 11:50:26;;;;;;;5.68;1.77;;;12.20;99.90;;;;;;5054952;28;20473;-85
2023/11/09 11:53:00;;;;;;;2.40;1.40;;;12.40;99.90;;;;;;5055700;28;20973;-85
2023/11/09 11:55:31;;;;;;;1.90;1.15;;;12.40;99.90;;;;;;5054058;28;20044;-84
2023/11/09 11:58:07;;;;;;;1.88;1.38;;;12.50;99.90;;;;;;5055858;28;20059;-84
2023/11/09 12:00:41;;;;;;;2.80;1.25;;;12.50;99.90;;;;;;5059024;28;20037;-82
2023/11/09 12:03:08;;;;;;;2.35;1.35;;;12.40;99.90;;;;;;5058032;28;20041;-84
2023/11/09 12:05:34;;;;;;;2.67;1.35;;;12.30;99.90;;;;;;5058148;28;20097;-85
2023/11/09 12:08:02;;;;;;;3.53;1.40;;;12.30;99.90;;;;;;5060311;28;20096;-85
2023/11/09 12:10:29;;;;;;;2.30;1.38;;;12.30;99.90;;;;;;5062770;28;20028;-84
2023/11/09 12:12:56;;;;;;;2.40;1.40;;;12.50;99.90;;;;;;5058891;28;20045;-85
2023/11/09 12:15:28;;;;;;;1.90;1.08;;;12.50;99.90;;;;;;5054856;28;20025;-85
2023/11/09 12:17:57;;;;;;;2.00;1.40;;;12.50;99.90;;;;;;5057052;28;20099;-85
2023/11/09 12:20:23;;;;;;;3.88;1.20;;;12.60;99.90;;;;;;5056509;28;20149;-86
2023/11/09 12:22:49;;;;;;;2.30;1.30;;;12.70;99.90;;;;;;5036431;28;20091;-85
2023/11/09 12:25:16;;;;;;;3.40;1.35;;;12.70;99.90;;;;;;5057117;28;20035;-85
2023/11/09 12:27:45;;;;;;;2.40;1.35;;;12.80;99.90;;;;;;5055422;28;20475;-85
2023/11/09 12:30:11;;;;;;;3.40;1.50;;;12.80;99.90;;;;;;5057872;28;20032;-84
2023/11/09 12:32:37;;;;;;;7.57;2.28;;;12.80;99.90;;;;;;5055449;28;20090;-85
2023/11/09 12:35:03;;;;;;;2.90;1.70;;;12.80;99.90;;;;;;5055547;28;21420;-85
2023/11/09 12:37:36;;;;;;;3.75;1.30;;;12.80;99.90;;;;;;5055369;28;20043;-85
2023/11/09 12:40:04;;;;;;;3.00;1.45;;;12.70;99.90;;;;;;5056634;28;20039;-85
2023/11/09 12:42:31;;;;;;;4.50;2.00;;;12.70;99.90;;;;;;5057019;28;20032;-85
2023/11/09 12:44:56;;;;;;;2.40;1.27;;;12.60;99.90;;;;;;5056164;28;20044;-85
2023/11/09 12:47:23;;;;;;;3.58;1.42;;;12.60;99.90;;;;;;5056594;28;21328;-85
2023/11/09 12:49:52;;;;;;;2.60;1.30;;;12.50;99.90;;;;;;5053711;28;20031;-84
2023/11/09 12:52:21;;;;;;;3.00;1.40;;;12.40;99.90;;;;;;5057034;28;20081;-85
2023/11/09 12:54:48;;;;;;;3.67;1.50;;;12.40;99.90;;;;;;5053155;28;20041;-85
2023/11/09 12:57:17;;;;;;;3.35;1.55;;;12.30;99.90;;;;;;5053245;28;20037;-85
2023/11/09 12:59:45;;;;;;;3.67;1.60;;;12.20;99.90;;;;;;5055631;28;20020;-87
2023/11/09 13:02:15;;;;;;;4.28;1.58;;;12.20;99.90;;;;;;5057175;28;20044;-87
2023/11/09 13:04:41;;;;;;;5.03;2.33;;;12.10;99.90;;;;;;5062269;28;20462;-87
2023/11/09 13:07:12;;;;;;;2.28;1.30;;;12.10;99.90;;;;;;5070666;28;20090;-87